Terminal Aerodrome Forecast
Issued by NWS Shreveport, LA

Home | Current Version | Previous Version | Text Only | Print | Product List | Glossary On
Versions: 1 2 3 4 5 6 7 8 9 10 11 12 13 14 15 16 17 18
000
FTUS44 KSHV 272100 AAA
TAFTYR
TAF AMD
KTYR 272140Z 2722/2818 05009KT P6SM OVC070
     FM280300 07008KT P6SM -SN SCT030 OVC050
      TEMPO 2803/2806 5SM -SNPL BR BKN030 OVC035
     FM280600 07008KT 6SM -SNPL BR OVC015
      TEMPO 2806/2809 5SM -FZRAPL OVC007
     FM280900 07009KT 6SM -FZRA BR OVC007
     FM281500 08011KT 4SM -RA BR OVC010=

USA.gov is the U.S. government's official web portal to all federal, state and local government web resources and services.